Terminal Aerodrome Forecast
Issued by NWS Shreveport, LA

Home | Current Version | Previous Version | Text Only | Print | Product List | Glossary On
Versions: 1 2 3 4 5 6 7 8 9 10 11 12 13
844
FTUS44 KSHV 181729
TAFGGG
TAF
KGGG 181729Z 1818/1918 18005KT P6SM SKC
     FM190000 15003KT P6SM SKC
      TEMPO 1910/1914 1SM BR BKN008
     FM191400 VRB03KT 1SM BR BKN005
     FM191500 14005KT P6SM BKN010
     FM191700 12006KT P6SM SCT015 SCT250=

USA.gov is the U.S. government's official web portal to all federal, state and local government web resources and services.